Tumbling Shoals, Arkansas
Current Conditions -  °F | °C
As of 11:55 AM on Tuesday 21 Oct 2014 (Local Time) from KBVX Reporting Station
Clear Clear  
Wind Chill: 72°   Ceiling: Unl
Heat Index: 72°   Visibility: 9mi
Dew Point: 46°   Wind: 0mph
Humidity: 41%   Direction: NA
Pressure: 30.13"   Gusts: NA
Location:  35.54°N, 91.97°W
Report Text: KBVX 211655Z AUTO 00000KT 9SM CLR 22/08 A3013 RMK AO1
Loading
Personal Weather Stations






























Interactive Weather Map
Tropical Storm Tracking
New forecast layout! Learn more

10-Day Weather Forecast

Advertisements
Track Severe Weather on mobile